sensor_id;sensor_type;location;lat;lon;timestamp;P1;durP1;ratioP1;P2;durP2;ratioP2
9860;SDS011;4969;52.304;4.968;2022-08-19T00:00:28;13.55;;;12.27;;
9860;SDS011;4969;52.304;4.968;2022-08-19T00:02:55;14.18;;;12.88;;
9860;SDS011;4969;52.304;4.968;2022-08-19T00:05:22;13.38;;;12.18;;
9860;SDS011;4969;52.304;4.968;2022-08-19T00:07:50;12.35;;;11.35;;
9860;SDS011;4969;52.304;4.968;2022-08-19T00:10:17;13.48;;;12.20;;
9860;SDS011;4969;52.304;4.968;2022-08-19T00:12:44;13.75;;;12.55;;
9860;SDS011;4969;52.304;4.968;2022-08-19T00:15:11;14.80;;;13.50;;
9860;SDS011;4969;52.304;4.968;2022-08-19T00:17:39;15.48;;;13.95;;
9860;SDS011;4969;52.304;4.968;2022-08-19T00:20:07;14.80;;;13.50;;
9860;SDS011;4969;52.304;4.968;2022-08-19T00:22:35;14.38;;;13.13;;
9860;SDS011;4969;52.304;4.968;2022-08-19T00:25:04;15.38;;;14.07;;
9860;SDS011;4969;52.304;4.968;2022-08-19T00:27:31;15.55;;;14.15;;
9860;SDS011;4969;52.304;4.968;2022-08-19T00:29:58;16.98;;;15.38;;
9860;SDS011;4969;52.304;4.968;2022-08-19T00:32:25;16.30;;;14.90;;
9860;SDS011;4969;52.304;4.968;2022-08-19T00:34:51;16.83;;;15.23;;
9860;SDS011;4969;52.304;4.968;2022-08-19T00:37:18;16.17;;;14.57;;
9860;SDS011;4969;52.304;4.968;2022-08-19T00:39:47;17.27;;;15.77;;
9860;SDS011;4969;52.304;4.968;2022-08-19T00:42:15;15.77;;;14.27;;
9860;SDS011;4969;52.304;4.968;2022-08-19T00:44:42;15.88;;;14.38;;
9860;SDS011;4969;52.304;4.968;2022-08-19T00:47:09;15.98;;;14.38;;
9860;SDS011;4969;52.304;4.968;2022-08-19T00:49:37;17.65;;;15.88;;
9860;SDS011;4969;52.304;4.968;2022-08-19T00:52:11;16.50;;;15.02;;
9860;SDS011;4969;52.304;4.968;2022-08-19T00:54:40;17.20;;;15.57;;
9860;SDS011;4969;52.304;4.968;2022-08-19T00:57:09;16.70;;;15.30;;
9860;SDS011;4969;52.304;4.968;2022-08-19T00:59:42;16.15;;;14.75;;
9860;SDS011;4969;52.304;4.968;2022-08-19T01:02:12;16.23;;;14.65;;
9860;SDS011;4969;52.304;4.968;2022-08-19T01:04:38;16.33;;;14.73;;
9860;SDS011;4969;52.304;4.968;2022-08-19T01:07:05;16.90;;;15.40;;
9860;SDS011;4969;52.304;4.968;2022-08-19T01:09:31;17.60;;;15.90;;
9860;SDS011;4969;52.304;4.968;2022-08-19T01:11:58;17.67;;;16.13;;
9860;SDS011;4969;52.304;4.968;2022-08-19T01:14:26;17.58;;;15.90;;
9860;SDS011;4969;52.304;4.968;2022-08-19T01:16:53;18.40;;;16.70;;
9860;SDS011;4969;52.304;4.968;2022-08-19T01:19:24;18.42;;;16.70;;
9860;SDS011;4969;52.304;4.968;2022-08-19T01:21:55;18.48;;;16.58;;
9860;SDS011;4969;52.304;4.968;2022-08-19T01:24:28;17.13;;;15.43;;
9860;SDS011;4969;52.304;4.968;2022-08-19T01:26:56;19.35;;;17.55;;
9860;SDS011;4969;52.304;4.968;2022-08-19T01:29:23;19.02;;;16.70;;
9860;SDS011;4969;52.304;4.968;2022-08-19T01:31:50;20.13;;;16.52;;
9860;SDS011;4969;52.304;4.968;2022-08-19T01:34:17;18.38;;;16.52;;
9860;SDS011;4969;52.304;4.968;2022-08-19T01:36:45;18.67;;;16.77;;
9860;SDS011;4969;52.304;4.968;2022-08-19T01:39:15;19.70;;;17.80;;
9860;SDS011;4969;52.304;4.968;2022-08-19T01:41:46;19.42;;;17.52;;
9860;SDS011;4969;52.304;4.968;2022-08-19T01:44:13;19.67;;;17.63;;
9860;SDS011;4969;52.304;4.968;2022-08-19T01:46:41;20.15;;;17.15;;
9860;SDS011;4969;52.304;4.968;2022-08-19T01:49:09;18.30;;;16.55;;
9860;SDS011;4969;52.304;4.968;2022-08-19T01:51:36;19.83;;;17.75;;
9860;SDS011;4969;52.304;4.968;2022-08-19T01:54:03;20.35;;;18.45;;
9860;SDS011;4969;52.304;4.968;2022-08-19T01:56:30;19.85;;;17.98;;
9860;SDS011;4969;52.304;4.968;2022-08-19T01:58:59;20.85;;;18.83;;
9860;SDS011;4969;52.304;4.968;2022-08-19T02:01:27;19.67;;;17.83;;
9860;SDS011;4969;52.304;4.968;2022-08-19T02:03:57;20.17;;;18.10;;
9860;SDS011;4969;52.304;4.968;2022-08-19T02:06:25;20.90;;;18.48;;
9860;SDS011;4969;52.304;4.968;2022-08-19T02:08:51;20.30;;;18.20;;
9860;SDS011;4969;52.304;4.968;2022-08-19T02:11:19;22.65;;;19.15;;
9860;SDS011;4969;52.304;4.968;2022-08-19T02:13:46;21.85;;;19.60;;
9860;SDS011;4969;52.304;4.968;2022-08-19T02:16:15;19.77;;;17.65;;
9860;SDS011;4969;52.304;4.968;2022-08-19T02:18:42;21.67;;;19.38;;
9860;SDS011;4969;52.304;4.968;2022-08-19T02:21:09;21.15;;;18.92;;
9860;SDS011;4969;52.304;4.968;2022-08-19T02:23:35;20.83;;;18.63;;
9860;SDS011;4969;52.304;4.968;2022-08-19T02:26:02;20.73;;;18.55;;
9860;SDS011;4969;52.304;4.968;2022-08-19T02:28:29;21.35;;;19.25;;
9860;SDS011;4969;52.304;4.968;2022-08-19T02:30:55;21.60;;;19.00;;
9860;SDS011;4969;52.304;4.968;2022-08-19T02:33:23;21.40;;;19.30;;
9860;SDS011;4969;52.304;4.968;2022-08-19T02:35:50;22.23;;;19.92;;
9860;SDS011;4969;52.304;4.968;2022-08-19T02:38:16;22.38;;;20.05;;
9860;SDS011;4969;52.304;4.968;2022-08-19T02:40:51;21.90;;;19.75;;
9860;SDS011;4969;52.304;4.968;2022-08-19T02:43:19;20.75;;;18.73;;
9860;SDS011;4969;52.304;4.968;2022-08-19T02:45:48;21.98;;;19.77;;
9860;SDS011;4969;52.304;4.968;2022-08-19T02:48:16;22.35;;;20.02;;
9860;SDS011;4969;52.304;4.968;2022-08-19T02:50:45;22.38;;;19.98;;
9860;SDS011;4969;52.304;4.968;2022-08-19T02:53:13;25.35;;;20.98;;
9860;SDS011;4969;52.304;4.968;2022-08-19T02:55:43;24.02;;;21.40;;
9860;SDS011;4969;52.304;4.968;2022-08-19T02:58:10;23.33;;;20.17;;
9860;SDS011;4969;52.304;4.968;2022-08-19T03:00:40;23.63;;;21.10;;
9860;SDS011;4969;52.304;4.968;2022-08-19T03:03:09;23.00;;;20.52;;
9860;SDS011;4969;52.304;4.968;2022-08-19T03:05:36;22.70;;;20.35;;
9860;SDS011;4969;52.304;4.968;2022-08-19T03:08:04;24.23;;;20.77;;
9860;SDS011;4969;52.304;4.968;2022-08-19T03:10:31;25.80;;;20.95;;
9860;SDS011;4969;52.304;4.968;2022-08-19T03:12:58;23.83;;;20.42;;
9860;SDS011;4969;52.304;4.968;2022-08-19T03:15:24;24.52;;;21.23;;
9860;SDS011;4969;52.304;4.968;2022-08-19T03:17:51;24.15;;;21.55;;
9860;SDS011;4969;52.304;4.968;2022-08-19T03:20:17;24.05;;;21.40;;
9860;SDS011;4969;52.304;4.968;2022-08-19T03:22:44;23.70;;;21.15;;
9860;SDS011;4969;52.304;4.968;2022-08-19T03:25:12;22.67;;;20.27;;
9860;SDS011;4969;52.304;4.968;2022-08-19T03:27:39;23.80;;;20.38;;
9860;SDS011;4969;52.304;4.968;2022-08-19T03:30:06;24.77;;;21.92;;
9860;SDS011;4969;52.304;4.968;2022-08-19T03:32:33;25.52;;;21.42;;
9860;SDS011;4969;52.304;4.968;2022-08-19T03:35:00;25.42;;;21.65;;
9860;SDS011;4969;52.304;4.968;2022-08-19T03:37:27;25.42;;;21.95;;
9860;SDS011;4969;52.304;4.968;2022-08-19T03:39:53;24.33;;;21.38;;
9860;SDS011;4969;52.304;4.968;2022-08-19T03:42:21;26.23;;;23.23;;
9860;SDS011;4969;52.304;4.968;2022-08-19T03:44:47;27.25;;;21.42;;
9860;SDS011;4969;52.304;4.968;2022-08-19T03:47:14;23.33;;;20.83;;
9860;SDS011;4969;52.304;4.968;2022-08-19T03:49:41;24.33;;;21.05;;
9860;SDS011;4969;52.304;4.968;2022-08-19T03:52:08;24.10;;;20.40;;
9860;SDS011;4969;52.304;4.968;2022-08-19T03:54:35;25.02;;;21.30;;
9860;SDS011;4969;52.304;4.968;2022-08-19T03:57:03;24.40;;;21.27;;
9860;SDS011;4969;52.304;4.968;2022-08-19T03:59:32;23.33;;;20.20;;
9860;SDS011;4969;52.304;4.968;2022-08-19T04:02:01;27.50;;;21.50;;
9860;SDS011;4969;52.304;4.968;2022-08-19T04:04:33;27.00;;;21.88;;
9860;SDS011;4969;52.304;4.968;2022-08-19T04:07:00;24.83;;;20.98;;
9860;SDS011;4969;52.304;4.968;2022-08-19T04:09:26;26.60;;;22.30;;
9860;SDS011;4969;52.304;4.968;2022-08-19T04:11:54;28.63;;;22.63;;
9860;SDS011;4969;52.304;4.968;2022-08-19T04:14:23;25.75;;;21.85;;
9860;SDS011;4969;52.304;4.968;2022-08-19T04:16:53;27.08;;;22.42;;
9860;SDS011;4969;52.304;4.968;2022-08-19T04:19:19;29.67;;;22.65;;
9860;SDS011;4969;52.304;4.968;2022-08-19T04:21:47;25.13;;;21.23;;
9860;SDS011;4969;52.304;4.968;2022-08-19T04:24:16;28.42;;;21.73;;
9860;SDS011;4969;52.304;4.968;2022-08-19T04:26:43;28.10;;;22.80;;
9860;SDS011;4969;52.304;4.968;2022-08-19T04:29:11;30.35;;;23.33;;
9860;SDS011;4969;52.304;4.968;2022-08-19T04:31:39;31.75;;;25.50;;
9860;SDS011;4969;52.304;4.968;2022-08-19T04:34:08;33.75;;;25.80;;
9860;SDS011;4969;52.304;4.968;2022-08-19T04:36:36;41.22;;;29.67;;
9860;SDS011;4969;52.304;4.968;2022-08-19T04:39:07;37.85;;;26.98;;
9860;SDS011;4969;52.304;4.968;2022-08-19T04:41:35;31.80;;;24.88;;
9860;SDS011;4969;52.304;4.968;2022-08-19T04:44:19;26.48;;;23.55;;
9860;SDS011;4969;52.304;4.968;2022-08-19T04:46:49;26.15;;;23.38;;
9860;SDS011;4969;52.304;4.968;2022-08-19T04:49:19;24.48;;;21.25;;
9860;SDS011;4969;52.304;4.968;2022-08-19T04:51:48;22.73;;;20.40;;
9860;SDS011;4969;52.304;4.968;2022-08-19T04:54:16;22.20;;;19.95;;
9860;SDS011;4969;52.304;4.968;2022-08-19T04:56:45;23.73;;;21.23;;
9860;SDS011;4969;52.304;4.968;2022-08-19T04:59:11;26.45;;;22.63;;
9860;SDS011;4969;52.304;4.968;2022-08-19T05:01:39;21.83;;;19.70;;
9860;SDS011;4969;52.304;4.968;2022-08-19T05:04:08;23.85;;;21.17;;
9860;SDS011;4969;52.304;4.968;2022-08-19T05:06:36;25.75;;;23.00;;
9860;SDS011;4969;52.304;4.968;2022-08-19T05:09:03;22.58;;;20.20;;
9860;SDS011;4969;52.304;4.968;2022-08-19T05:11:31;22.85;;;20.33;;
9860;SDS011;4969;52.304;4.968;2022-08-19T05:14:00;27.45;;;23.67;;
9860;SDS011;4969;52.304;4.968;2022-08-19T05:16:27;29.15;;;25.42;;
9860;SDS011;4969;52.304;4.968;2022-08-19T05:18:54;25.42;;;22.77;;
9860;SDS011;4969;52.304;4.968;2022-08-19T05:21:40;29.33;;;24.98;;
9860;SDS011;4969;52.304;4.968;2022-08-19T05:24:25;27.38;;;24.42;;
9860;SDS011;4969;52.304;4.968;2022-08-19T05:26:52;29.65;;;25.98;;
9860;SDS011;4969;52.304;4.968;2022-08-19T05:29:21;27.40;;;24.48;;
9860;SDS011;4969;52.304;4.968;2022-08-19T05:31:49;26.65;;;23.95;;
9860;SDS011;4969;52.304;4.968;2022-08-19T05:34:17;25.95;;;23.23;;
9860;SDS011;4969;52.304;4.968;2022-08-19T05:36:46;26.00;;;23.35;;
9860;SDS011;4969;52.304;4.968;2022-08-19T05:39:15;24.80;;;22.35;;
9860;SDS011;4969;52.304;4.968;2022-08-19T05:41:42;25.95;;;22.27;;
9860;SDS011;4969;52.304;4.968;2022-08-19T05:44:09;22.92;;;20.70;;
9860;SDS011;4969;52.304;4.968;2022-08-19T05:46:37;25.90;;;21.95;;
9860;SDS011;4969;52.304;4.968;2022-08-19T05:49:04;22.38;;;20.08;;
9860;SDS011;4969;52.304;4.968;2022-08-19T05:51:31;26.90;;;21.75;;
9860;SDS011;4969;52.304;4.968;2022-08-19T05:54:00;26.65;;;23.90;;
9860;SDS011;4969;52.304;4.968;2022-08-19T05:56:27;31.15;;;26.30;;
9860;SDS011;4969;52.304;4.968;2022-08-19T05:58:55;32.00;;;25.63;;
9860;SDS011;4969;52.304;4.968;2022-08-19T06:01:23;28.25;;;23.83;;
9860;SDS011;4969;52.304;4.968;2022-08-19T06:03:52;37.17;;;29.67;;
9860;SDS011;4969;52.304;4.968;2022-08-19T06:06:19;41.78;;;29.70;;
9860;SDS011;4969;52.304;4.968;2022-08-19T06:08:46;37.40;;;29.00;;
9860;SDS011;4969;52.304;4.968;2022-08-19T06:11:17;40.17;;;32.15;;
9860;SDS011;4969;52.304;4.968;2022-08-19T06:13:46;47.40;;;33.45;;
9860;SDS011;4969;52.304;4.968;2022-08-19T06:16:15;47.20;;;33.77;;
9860;SDS011;4969;52.304;4.968;2022-08-19T06:18:47;50.63;;;32.67;;
9860;SDS011;4969;52.304;4.968;2022-08-19T06:21:16;52.97;;;34.13;;
9860;SDS011;4969;52.304;4.968;2022-08-19T06:23:44;53.60;;;35.10;;
9860;SDS011;4969;52.304;4.968;2022-08-19T06:26:12;51.90;;;35.17;;
9860;SDS011;4969;52.304;4.968;2022-08-19T06:28:40;51.65;;;34.60;;
9860;SDS011;4969;52.304;4.968;2022-08-19T06:31:11;50.58;;;33.75;;
9860;SDS011;4969;52.304;4.968;2022-08-19T06:33:39;60.15;;;37.45;;
9860;SDS011;4969;52.304;4.968;2022-08-19T06:36:06;56.75;;;35.78;;
9860;SDS011;4969;52.304;4.968;2022-08-19T06:38:33;56.83;;;37.45;;
9860;SDS011;4969;52.304;4.968;2022-08-19T06:41:00;59.70;;;38.53;;
9860;SDS011;4969;52.304;4.968;2022-08-19T06:43:28;51.75;;;35.40;;
9860;SDS011;4969;52.304;4.968;2022-08-19T06:45:55;56.92;;;38.00;;
9860;SDS011;4969;52.304;4.968;2022-08-19T06:48:23;59.08;;;36.90;;
9860;SDS011;4969;52.304;4.968;2022-08-19T06:50:50;56.85;;;36.25;;
9860;SDS011;4969;52.304;4.968;2022-08-19T06:53:17;53.50;;;37.38;;
9860;SDS011;4969;52.304;4.968;2022-08-19T06:55:44;63.90;;;39.67;;
9860;SDS011;4969;52.304;4.968;2022-08-19T06:58:10;51.85;;;36.10;;
9860;SDS011;4969;52.304;4.968;2022-08-19T07:00:37;51.28;;;36.42;;
9860;SDS011;4969;52.304;4.968;2022-08-19T07:03:05;55.67;;;37.80;;
9860;SDS011;4969;52.304;4.968;2022-08-19T07:05:33;57.10;;;37.75;;
9860;SDS011;4969;52.304;4.968;2022-08-19T07:08:04;51.05;;;36.28;;
9860;SDS011;4969;52.304;4.968;2022-08-19T07:10:31;54.42;;;37.45;;
9860;SDS011;4969;52.304;4.968;2022-08-19T07:12:58;54.28;;;36.70;;
9860;SDS011;4969;52.304;4.968;2022-08-19T07:15:25;51.95;;;37.00;;
9860;SDS011;4969;52.304;4.968;2022-08-19T07:17:52;53.30;;;36.20;;
9860;SDS011;4969;52.304;4.968;2022-08-19T07:20:20;59.33;;;37.67;;
9860;SDS011;4969;52.304;4.968;2022-08-19T07:22:46;52.28;;;35.47;;
9860;SDS011;4969;52.304;4.968;2022-08-19T07:25:13;51.05;;;35.85;;
9860;SDS011;4969;52.304;4.968;2022-08-19T07:27:40;53.40;;;36.97;;
9860;SDS011;4969;52.304;4.968;2022-08-19T07:30:08;54.00;;;36.83;;
9860;SDS011;4969;52.304;4.968;2022-08-19T07:32:36;51.65;;;35.72;;
9860;SDS011;4969;52.304;4.968;2022-08-19T07:35:03;55.75;;;36.17;;
9860;SDS011;4969;52.304;4.968;2022-08-19T07:37:32;50.35;;;33.67;;
9860;SDS011;4969;52.304;4.968;2022-08-19T07:40:00;42.30;;;32.80;;
9860;SDS011;4969;52.304;4.968;2022-08-19T07:42:27;48.00;;;32.63;;
9860;SDS011;4969;52.304;4.968;2022-08-19T07:44:54;48.33;;;32.38;;
9860;SDS011;4969;52.304;4.968;2022-08-19T07:47:21;45.97;;;32.35;;
9860;SDS011;4969;52.304;4.968;2022-08-19T07:49:47;43.45;;;32.50;;
9860;SDS011;4969;52.304;4.968;2022-08-19T07:52:14;43.38;;;32.85;;
9860;SDS011;4969;52.304;4.968;2022-08-19T07:54:42;40.75;;;30.08;;
9860;SDS011;4969;52.304;4.968;2022-08-19T07:57:09;39.78;;;29.92;;
9860;SDS011;4969;52.304;4.968;2022-08-19T07:59:36;38.55;;;28.58;;
9860;SDS011;4969;52.304;4.968;2022-08-19T08:02:03;36.78;;;26.90;;
9860;SDS011;4969;52.304;4.968;2022-08-19T08:04:30;36.15;;;27.45;;
9860;SDS011;4969;52.304;4.968;2022-08-19T08:07:14;36.33;;;29.23;;
9860;SDS011;4969;52.304;4.968;2022-08-19T08:10:00;48.08;;;34.33;;
9860;SDS011;4969;52.304;4.968;2022-08-19T08:12:27;43.28;;;34.65;;
9860;SDS011;4969;52.304;4.968;2022-08-19T08:14:57;39.30;;;29.85;;
9860;SDS011;4969;52.304;4.968;2022-08-19T08:17:27;36.28;;;28.55;;
9860;SDS011;4969;52.304;4.968;2022-08-19T08:19:55;34.45;;;27.85;;
9860;SDS011;4969;52.304;4.968;2022-08-19T08:22:22;36.40;;;27.70;;
9860;SDS011;4969;52.304;4.968;2022-08-19T08:25:06;39.90;;;27.30;;
9860;SDS011;4969;52.304;4.968;2022-08-19T08:27:35;34.15;;;26.17;;
9860;SDS011;4969;52.304;4.968;2022-08-19T08:30:05;32.53;;;26.05;;
9860;SDS011;4969;52.304;4.968;2022-08-19T08:32:34;39.00;;;27.58;;
9860;SDS011;4969;52.304;4.968;2022-08-19T08:35:00;35.05;;;28.08;;
9860;SDS011;4969;52.304;4.968;2022-08-19T08:37:27;39.90;;;26.95;;
9860;SDS011;4969;52.304;4.968;2022-08-19T08:39:54;35.25;;;26.95;;
9860;SDS011;4969;52.304;4.968;2022-08-19T08:42:22;34.00;;;26.50;;
9860;SDS011;4969;52.304;4.968;2022-08-19T08:44:55;30.23;;;24.50;;
9860;SDS011;4969;52.304;4.968;2022-08-19T08:47:26;35.90;;;22.13;;
9860;SDS011;4969;52.304;4.968;2022-08-19T08:49:58;27.52;;;20.60;;
9860;SDS011;4969;52.304;4.968;2022-08-19T08:52:30;25.10;;;20.55;;
9860;SDS011;4969;52.304;4.968;2022-08-19T08:55:00;31.20;;;21.63;;
9860;SDS011;4969;52.304;4.968;2022-08-19T08:57:35;28.38;;;20.75;;
9860;SDS011;4969;52.304;4.968;2022-08-19T09:00:04;27.17;;;19.52;;
9860;SDS011;4969;52.304;4.968;2022-08-19T09:02:33;26.17;;;20.67;;
9860;SDS011;4969;52.304;4.968;2022-08-19T09:05:00;29.90;;;19.42;;
9860;SDS011;4969;52.304;4.968;2022-08-19T09:07:30;23.40;;;18.77;;
9860;SDS011;4969;52.304;4.968;2022-08-19T09:10:08;25.98;;;19.08;;
9860;SDS011;4969;52.304;4.968;2022-08-19T09:12:43;24.95;;;17.83;;
9860;SDS011;4969;52.304;4.968;2022-08-19T09:15:18;24.27;;;17.55;;
9860;SDS011;4969;52.304;4.968;2022-08-19T09:17:48;25.13;;;17.45;;
9860;SDS011;4969;52.304;4.968;2022-08-19T09:20:16;22.85;;;16.52;;
9860;SDS011;4969;52.304;4.968;2022-08-19T09:22:45;23.65;;;17.40;;
9860;SDS011;4969;52.304;4.968;2022-08-19T09:25:15;33.40;;;19.10;;
9860;SDS011;4969;52.304;4.968;2022-08-19T09:27:46;21.55;;;16.98;;
9860;SDS011;4969;52.304;4.968;2022-08-19T09:30:16;19.55;;;16.38;;
9860;SDS011;4969;52.304;4.968;2022-08-19T09:32:44;16.75;;;13.57;;
9860;SDS011;4969;52.304;4.968;2022-08-19T09:35:12;21.85;;;16.33;;
9860;SDS011;4969;52.304;4.968;2022-08-19T09:37:40;19.23;;;15.52;;
9860;SDS011;4969;52.304;4.968;2022-08-19T09:40:08;15.27;;;12.75;;
9860;SDS011;4969;52.304;4.968;2022-08-19T09:42:36;15.77;;;11.73;;
9860;SDS011;4969;52.304;4.968;2022-08-19T09:45:04;11.35;;;10.18;;
9860;SDS011;4969;52.304;4.968;2022-08-19T09:47:31;11.88;;;9.38;;
9860;SDS011;4969;52.304;4.968;2022-08-19T09:50:01;11.98;;;10.02;;
9860;SDS011;4969;52.304;4.968;2022-08-19T09:52:27;16.20;;;10.93;;
9860;SDS011;4969;52.304;4.968;2022-08-19T09:54:54;11.32;;;9.52;;
9860;SDS011;4969;52.304;4.968;2022-08-19T09:57:20;10.05;;;8.48;;
9860;SDS011;4969;52.304;4.968;2022-08-19T09:59:47;11.52;;;7.90;;
9860;SDS011;4969;52.304;4.968;2022-08-19T10:02:15;16.77;;;13.38;;
9860;SDS011;4969;52.304;4.968;2022-08-19T10:04:41;13.75;;;8.80;;
9860;SDS011;4969;52.304;4.968;2022-08-19T10:07:25;11.10;;;8.63;;
9860;SDS011;4969;52.304;4.968;2022-08-19T10:09:52;10.43;;;9.15;;
9860;SDS011;4969;52.304;4.968;2022-08-19T10:12:19;10.95;;;9.15;;
9860;SDS011;4969;52.304;4.968;2022-08-19T10:14:45;10.27;;;8.52;;
9860;SDS011;4969;52.304;4.968;2022-08-19T10:17:12;14.02;;;9.25;;
9860;SDS011;4969;52.304;4.968;2022-08-19T10:19:40;10.75;;;9.27;;
9860;SDS011;4969;52.304;4.968;2022-08-19T10:22:06;14.60;;;10.65;;
9860;SDS011;4969;52.304;4.968;2022-08-19T10:24:33;12.15;;;10.93;;
9860;SDS011;4969;52.304;4.968;2022-08-19T10:27:00;10.32;;;8.93;;
9860;SDS011;4969;52.304;4.968;2022-08-19T10:29:28;12.45;;;10.75;;
9860;SDS011;4969;52.304;4.968;2022-08-19T10:31:56;26.45;;;23.58;;
9860;SDS011;4969;52.304;4.968;2022-08-19T10:34:25;11.27;;;9.30;;
9860;SDS011;4969;52.304;4.968;2022-08-19T10:36:54;15.40;;;10.18;;
9860;SDS011;4969;52.304;4.968;2022-08-19T10:39:21;16.35;;;14.55;;
9860;SDS011;4969;52.304;4.968;2022-08-19T10:41:47;18.77;;;14.38;;
9860;SDS011;4969;52.304;4.968;2022-08-19T10:44:14;15.20;;;13.60;;
9860;SDS011;4969;52.304;4.968;2022-08-19T10:46:42;16.23;;;13.25;;
9860;SDS011;4969;52.304;4.968;2022-08-19T10:49:11;12.88;;;11.02;;
9860;SDS011;4969;52.304;4.968;2022-08-19T10:51:38;16.85;;;11.35;;
9860;SDS011;4969;52.304;4.968;2022-08-19T10:54:25;19.00;;;15.10;;
9860;SDS011;4969;52.304;4.968;2022-08-19T10:57:12;12.77;;;10.48;;
9860;SDS011;4969;52.304;4.968;2022-08-19T10:59:37;13.90;;;9.85;;
9860;SDS011;4969;52.304;4.968;2022-08-19T11:02:05;16.95;;;13.05;;
9860;SDS011;4969;52.304;4.968;2022-08-19T11:04:34;14.43;;;9.13;;
9860;SDS011;4969;52.304;4.968;2022-08-19T11:07:01;12.25;;;10.43;;
9860;SDS011;4969;52.304;4.968;2022-08-19T11:09:30;12.88;;;9.10;;
9860;SDS011;4969;52.304;4.968;2022-08-19T11:12:02;10.10;;;6.70;;
9860;SDS011;4969;52.304;4.968;2022-08-19T11:14:29;10.63;;;7.97;;
9860;SDS011;4969;52.304;4.968;2022-08-19T11:16:57;9.57;;;7.65;;
9860;SDS011;4969;52.304;4.968;2022-08-19T11:19:24;9.05;;;8.02;;
9860;SDS011;4969;52.304;4.968;2022-08-19T11:21:51;7.55;;;6.50;;
9860;SDS011;4969;52.304;4.968;2022-08-19T11:24:20;12.15;;;6.55;;
9860;SDS011;4969;52.304;4.968;2022-08-19T11:26:50;11.50;;;10.30;;
9860;SDS011;4969;52.304;4.968;2022-08-19T11:29:19;13.50;;;10.43;;
9860;SDS011;4969;52.304;4.968;2022-08-19T11:31:50;13.23;;;11.40;;
9860;SDS011;4969;52.304;4.968;2022-08-19T11:34:19;13.43;;;12.02;;
9860;SDS011;4969;52.304;4.968;2022-08-19T11:36:48;8.57;;;6.47;;
9860;SDS011;4969;52.304;4.968;2022-08-19T11:39:16;7.63;;;6.47;;
9860;SDS011;4969;52.304;4.968;2022-08-19T11:41:45;8.07;;;6.05;;
9860;SDS011;4969;52.304;4.968;2022-08-19T11:44:13;8.63;;;5.97;;
9860;SDS011;4969;52.304;4.968;2022-08-19T11:46:41;8.30;;;6.47;;
9860;SDS011;4969;52.304;4.968;2022-08-19T11:49:10;6.22;;;4.38;;
9860;SDS011;4969;52.304;4.968;2022-08-19T11:51:37;7.68;;;5.30;;
9860;SDS011;4969;52.304;4.968;2022-08-19T11:54:04;6.03;;;4.72;;
9860;SDS011;4969;52.304;4.968;2022-08-19T11:56:31;7.95;;;5.32;;
9860;SDS011;4969;52.304;4.968;2022-08-19T11:58:58;4.97;;;4.13;;
9860;SDS011;4969;52.304;4.968;2022-08-19T12:01:28;7.50;;;6.38;;
9860;SDS011;4969;52.304;4.968;2022-08-19T12:03:55;7.38;;;5.68;;
9860;SDS011;4969;52.304;4.968;2022-08-19T12:06:23;7.60;;;5.80;;
9860;SDS011;4969;52.304;4.968;2022-08-19T12:08:53;7.70;;;5.40;;
9860;SDS011;4969;52.304;4.968;2022-08-19T12:11:20;7.60;;;5.70;;
9860;SDS011;4969;52.304;4.968;2022-08-19T12:13:47;6.13;;;4.60;;
9860;SDS011;4969;52.304;4.968;2022-08-19T12:16:16;5.53;;;4.93;;
9860;SDS011;4969;52.304;4.968;2022-08-19T12:18:46;7.13;;;5.85;;
9860;SDS011;4969;52.304;4.968;2022-08-19T12:21:13;8.25;;;6.28;;
9860;SDS011;4969;52.304;4.968;2022-08-19T12:23:40;5.18;;;4.63;;
9860;SDS011;4969;52.304;4.968;2022-08-19T12:26:08;5.55;;;4.43;;
9860;SDS011;4969;52.304;4.968;2022-08-19T12:28:36;4.97;;;3.88;;
9860;SDS011;4969;52.304;4.968;2022-08-19T12:31:03;4.18;;;3.70;;
9860;SDS011;4969;52.304;4.968;2022-08-19T12:33:30;3.88;;;3.50;;
9860;SDS011;4969;52.304;4.968;2022-08-19T12:36:01;5.22;;;2.97;;
9860;SDS011;4969;52.304;4.968;2022-08-19T12:38:29;5.75;;;2.60;;
9860;SDS011;4969;52.304;4.968;2022-08-19T12:40:57;3.80;;;2.80;;
9860;SDS011;4969;52.304;4.968;2022-08-19T12:43:24;2.75;;;2.50;;
9860;SDS011;4969;52.304;4.968;2022-08-19T12:45:50;3.88;;;3.10;;
9860;SDS011;4969;52.304;4.968;2022-08-19T12:48:17;4.70;;;3.33;;
9860;SDS011;4969;52.304;4.968;2022-08-19T12:50:44;5.10;;;2.95;;
9860;SDS011;4969;52.304;4.968;2022-08-19T12:53:13;4.15;;;2.92;;
9860;SDS011;4969;52.304;4.968;2022-08-19T12:55:40;2.92;;;2.65;;
9860;SDS011;4969;52.304;4.968;2022-08-19T12:58:08;2.70;;;2.50;;
9860;SDS011;4969;52.304;4.968;2022-08-19T13:00:35;3.03;;;2.72;;
9860;SDS011;4969;52.304;4.968;2022-08-19T13:03:01;2.05;;;1.90;;
9860;SDS011;4969;52.304;4.968;2022-08-19T13:05:28;3.35;;;2.63;;
9860;SDS011;4969;52.304;4.968;2022-08-19T13:07:58;2.70;;;2.50;;
9860;SDS011;4969;52.304;4.968;2022-08-19T13:10:29;2.58;;;2.38;;
9860;SDS011;4969;52.304;4.968;2022-08-19T13:13:00;3.65;;;3.35;;
9860;SDS011;4969;52.304;4.968;2022-08-19T13:15:27;3.50;;;2.53;;
9860;SDS011;4969;52.304;4.968;2022-08-19T13:17:57;3.45;;;2.00;;
9860;SDS011;4969;52.304;4.968;2022-08-19T13:20:24;1.70;;;1.60;;
9860;SDS011;4969;52.304;4.968;2022-08-19T13:22:50;3.25;;;2.97;;
9860;SDS011;4969;52.304;4.968;2022-08-19T13:25:18;4.43;;;2.38;;
9860;SDS011;4969;52.304;4.968;2022-08-19T13:27:47;2.83;;;2.10;;
9860;SDS011;4969;52.304;4.968;2022-08-19T13:30:16;2.35;;;1.50;;
9860;SDS011;4969;52.304;4.968;2022-08-19T13:33:16;2.75;;;1.90;;
9860;SDS011;4969;52.304;4.968;2022-08-19T13:35:44;2.10;;;1.70;;
9860;SDS011;4969;52.304;4.968;2022-08-19T13:38:13;2.03;;;1.75;;
9860;SDS011;4969;52.304;4.968;2022-08-19T13:40:41;3.25;;;1.70;;
9860;SDS011;4969;52.304;4.968;2022-08-19T13:43:09;3.45;;;1.80;;
9860;SDS011;4969;52.304;4.968;2022-08-19T13:45:36;1.77;;;1.50;;
9860;SDS011;4969;52.304;4.968;2022-08-19T13:48:03;1.88;;;1.58;;
9860;SDS011;4969;52.304;4.968;2022-08-19T13:50:33;1.60;;;1.45;;
9860;SDS011;4969;52.304;4.968;2022-08-19T13:53:01;1.85;;;1.60;;
9860;SDS011;4969;52.304;4.968;2022-08-19T13:55:29;1.90;;;1.70;;
9860;SDS011;4969;52.304;4.968;2022-08-19T13:57:56;2.33;;;1.92;;
9860;SDS011;4969;52.304;4.968;2022-08-19T14:00:27;1.70;;;1.60;;
9860;SDS011;4969;52.304;4.968;2022-08-19T14:02:57;2.20;;;1.65;;
9860;SDS011;4969;52.304;4.968;2022-08-19T14:05:24;2.60;;;1.63;;
9860;SDS011;4969;52.304;4.968;2022-08-19T14:07:52;2.70;;;2.50;;
9860;SDS011;4969;52.304;4.968;2022-08-19T14:10:19;4.20;;;2.13;;
9860;SDS011;4969;52.304;4.968;2022-08-19T14:12:48;2.22;;;2.03;;
9860;SDS011;4969;52.304;4.968;2022-08-19T14:15:14;2.17;;;1.98;;
9860;SDS011;4969;52.304;4.968;2022-08-19T14:17:43;2.30;;;1.98;;
9860;SDS011;4969;52.304;4.968;2022-08-19T14:20:11;2.72;;;1.98;;
9860;SDS011;4969;52.304;4.968;2022-08-19T14:22:40;2.25;;;2.00;;
9860;SDS011;4969;52.304;4.968;2022-08-19T14:25:08;1.90;;;1.75;;
9860;SDS011;4969;52.304;4.968;2022-08-19T14:27:38;1.80;;;1.70;;
9860;SDS011;4969;52.304;4.968;2022-08-19T14:30:06;2.00;;;1.70;;
9860;SDS011;4969;52.304;4.968;2022-08-19T14:32:33;3.38;;;1.60;;
9860;SDS011;4969;52.304;4.968;2022-08-19T14:35:02;2.00;;;1.90;;
9860;SDS011;4969;52.304;4.968;2022-08-19T14:37:29;1.77;;;1.67;;
9860;SDS011;4969;52.304;4.968;2022-08-19T14:39:55;1.80;;;1.67;;
9860;SDS011;4969;52.304;4.968;2022-08-19T14:42:22;2.67;;;2.08;;
9860;SDS011;4969;52.304;4.968;2022-08-19T14:44:48;2.75;;;2.20;;
9860;SDS011;4969;52.304;4.968;2022-08-19T14:47:15;2.80;;;1.90;;
9860;SDS011;4969;52.304;4.968;2022-08-19T14:49:41;3.10;;;1.95;;
9860;SDS011;4969;52.304;4.968;2022-08-19T14:52:10;1.80;;;1.67;;
9860;SDS011;4969;52.304;4.968;2022-08-19T14:54:36;1.63;;;1.50;;
9860;SDS011;4969;52.304;4.968;2022-08-19T14:57:03;2.92;;;1.67;;
9860;SDS011;4969;52.304;4.968;2022-08-19T14:59:29;2.70;;;1.63;;
9860;SDS011;4969;52.304;4.968;2022-08-19T15:01:56;2.15;;;1.90;;